Time;durP1;ratioP1;P1;durP2;ratioP2;P2;SDS_P1;SDS_P2;PMS_P1;PMS_P2;Temp;Humidity;BMP_temperature;BMP_pressure;BME280_temperature;BME280_humidity;BME280_pressure;Samples;Min_cycle;Max_cycle;Signal;HPM_P1;HPM_P2
2022/08/27 00:02:02;;;;;;;13.13;7.03;;;18.10;99.90;;;;;;4993249;28;20546;-86
2022/08/27 00:04:28;;;;;;;14.27;6.55;;;18.00;99.90;;;;;;4995069;28;20050;-86
2022/08/27 00:06:54;;;;;;;16.00;6.97;;;17.90;99.90;;;;;;4996076;28;20112;-86
2022/08/27 00:09:20;;;;;;;12.10;6.18;;;17.80;99.90;;;;;;4996669;28;20033;-86
2022/08/27 00:11:46;;;;;;;12.63;6.40;;;17.70;99.90;;;;;;4996750;28;20085;-86
2022/08/27 00:14:13;;;;;;;14.02;7.40;;;17.70;99.90;;;;;;4996285;28;20037;-86
2022/08/27 00:16:39;;;;;;;15.35;7.30;;;17.70;99.90;;;;;;4995625;28;20061;-86
2022/08/27 00:19:05;;;;;;;15.73;6.93;;;17.70;99.90;;;;;;4996651;28;20038;-86
2022/08/27 00:21:32;;;;;;;15.10;8.00;;;17.70;99.90;;;;;;4995338;28;20185;-86
2022/08/27 00:23:58;;;;;;;15.80;8.10;;;17.60;99.90;;;;;;4997029;28;20033;-86
2022/08/27 00:26:24;;;;;;;21.42;8.20;;;17.60;99.90;;;;;;4995650;28;20026;-86
2022/08/27 00:28:50;;;;;;;16.25;8.45;;;17.60;99.90;;;;;;4996525;28;20061;-86
2022/08/27 00:31:16;;;;;;;19.85;8.32;;;17.60;99.90;;;;;;4995244;28;20030;-86
2022/08/27 00:33:42;;;;;;;21.20;9.63;;;17.50;99.90;;;;;;4995930;28;20053;-86
2022/08/27 00:36:08;;;;;;;22.65;8.90;;;17.50;99.90;;;;;;4996387;28;20034;-86
2022/08/27 00:38:36;;;;;;;17.58;8.70;;;17.60;99.90;;;;;;4987190;28;20081;-86
2022/08/27 00:41:01;;;;;;;22.20;9.93;;;17.50;99.90;;;;;;4996874;28;20018;-86
2022/08/27 00:43:44;;;;;;;24.38;11.57;;;17.60;99.90;;;;;;4995258;28;20504;-86
2022/08/27 00:46:31;;;;;;;20.52;9.45;;;17.60;99.90;;;;;;4992204;28;20256;-86
2022/08/27 00:49:11;;;;;;;18.55;8.13;;;17.60;99.90;;;;;;4997095;28;20041;-86
2022/08/27 00:51:38;;;;;;;15.35;7.72;;;17.70;99.90;;;;;;4995424;28;20035;-86
2022/08/27 00:54:06;;;;;;;16.48;7.78;;;17.70;99.90;;;;;;4996452;28;20692;-86
2022/08/27 00:56:37;;;;;;;16.40;7.13;;;17.70;99.90;;;;;;4995228;28;20084;-86
2022/08/27 00:59:03;;;;;;;16.60;8.13;;;17.70;99.90;;;;;;4995428;28;20018;-86
2022/08/27 01:01:32;;;;;;;20.35;7.50;;;17.40;99.90;;;;;;4993421;28;20022;-86
2022/08/27 01:04:01;;;;;;;17.88;7.70;;;17.40;99.90;;;;;;4992879;28;20046;-86
2022/08/27 01:06:32;;;;;;;18.70;8.70;;;17.40;99.90;;;;;;4995867;28;20061;-86
2022/08/27 01:09:08;;;;;;;15.32;7.63;;;17.20;99.90;;;;;;4992467;28;20058;-86
2022/08/27 01:11:34;;;;;;;16.30;6.38;;;17.20;99.90;;;;;;4991077;28;20038;-86
2022/08/27 01:14:02;;;;;;;16.33;8.73;;;17.30;99.90;;;;;;4989466;28;20034;-86
2022/08/27 01:16:36;;;;;;;17.33;8.98;;;17.30;99.90;;;;;;4989602;28;20077;-86
2022/08/27 01:19:06;;;;;;;19.20;8.80;;;17.20;99.90;;;;;;4989173;28;20498;-86
2022/08/27 01:21:34;;;;;;;;;;;17.20;99.90;;;;;;4995065;28;20015;-86
2022/08/27 01:24:29;;;;;;;19.67;8.40;;;17.10;99.90;;;;;;4993220;28;19910;-86
2022/08/27 01:26:56;;;;;;;18.90;8.13;;;17.10;99.90;;;;;;4980338;28;20049;-86
2022/08/27 01:29:23;;;;;;;22.60;9.75;;;17.10;99.90;;;;;;4992654;28;20018;-86
2022/08/27 01:31:48;;;;;;;19.20;8.13;;;17.00;99.90;;;;;;4992942;28;20434;-86
2022/08/27 01:34:14;;;;;;;20.55;8.48;;;17.00;99.90;;;;;;4993607;28;20034;-86
2022/08/27 01:36:40;;;;;;;20.92;9.55;;;16.90;99.90;;;;;;4990014;28;20113;-86
2022/08/27 01:39:06;;;;;;;18.63;9.75;;;16.90;99.90;;;;;;4991431;28;20098;-86
2022/08/27 01:41:33;;;;;;;23.08;9.90;;;16.90;99.90;;;;;;4994959;28;20075;-86
2022/08/27 01:43:58;;;;;;;20.20;10.48;;;16.90;99.90;;;;;;4994234;28;20466;-86
2022/08/27 01:46:27;;;;;;;20.05;9.88;;;16.80;99.90;;;;;;4991138;28;20058;-86
2022/08/27 01:48:53;;;;;;;20.60;11.38;;;16.90;99.90;;;;;;4991727;28;20022;-86
2022/08/27 01:51:20;;;;;;;25.52;9.98;;;16.80;99.90;;;;;;4996468;28;20026;-86
2022/08/27 01:53:49;;;;;;;20.40;9.80;;;16.80;99.90;;;;;;4995982;28;20113;-86
2022/08/27 01:56:18;;;;;;;20.10;9.30;;;16.80;99.90;;;;;;4989763;28;20018;-87
2022/08/27 01:58:44;;;;;;;24.40;9.60;;;16.80;99.90;;;;;;4989294;28;20125;-87
2022/08/27 02:01:12;;;;;;;17.80;8.98;;;16.70;99.90;;;;;;4992744;28;20062;-86
2022/08/27 02:03:40;;;;;;;20.08;10.02;;;16.80;99.90;;;;;;4991271;28;20022;-87
2022/08/27 02:06:08;;;;;;;21.63;10.20;;;16.70;99.90;;;;;;4992467;28;20046;-86
2022/08/27 02:08:34;;;;;;;19.00;9.20;;;16.60;99.90;;;;;;4992826;28;20026;-87
2022/08/27 02:11:00;;;;;;;25.40;11.05;;;16.70;99.90;;;;;;4991819;28;20573;-86
2022/08/27 02:13:26;;;;;;;19.60;9.75;;;16.70;99.90;;;;;;4994149;28;20026;-87
2022/08/27 02:15:53;;;;;;;19.23;9.60;;;16.80;99.90;;;;;;4993401;28;20035;-87
2022/08/27 02:18:18;;;;;;;20.23;9.38;;;16.70;99.90;;;;;;4989292;28;20030;-87
2022/08/27 02:20:46;;;;;;;24.48;11.80;;;16.70;99.90;;;;;;4988845;28;20080;-87
2022/08/27 02:23:13;;;;;;;28.42;11.68;;;16.60;99.90;;;;;;4993036;28;20026;-87
2022/08/27 02:25:39;;;;;;;19.75;10.15;;;16.60;99.90;;;;;;4990333;28;20037;-87
2022/08/27 02:28:05;;;;;;;27.42;12.63;;;16.70;99.90;;;;;;4983831;28;20439;-87
2022/08/27 02:30:32;;;;;;;26.55;12.95;;;16.60;99.90;;;;;;4986885;28;20064;-87
2022/08/27 02:32:59;;;;;;;27.23;13.32;;;16.70;99.90;;;;;;4991139;28;20026;-86
2022/08/27 02:35:26;;;;;;;26.05;12.68;;;16.60;99.90;;;;;;4990198;28;20109;-86
2022/08/27 02:37:52;;;;;;;33.92;13.55;;;16.60;99.90;;;;;;4988837;28;20096;-86
2022/08/27 02:40:21;;;;;;;23.80;12.35;;;16.60;99.90;;;;;;4988785;28;20022;-86
2022/08/27 02:42:47;;;;;;;26.25;12.15;;;16.70;99.90;;;;;;4991669;28;20026;-86
2022/08/27 02:45:14;;;;;;;27.02;11.60;;;16.70;99.90;;;;;;4991017;28;20106;-86
2022/08/27 02:47:43;;;;;;;26.38;11.60;;;16.60;99.90;;;;;;4991081;28;20129;-86
2022/08/27 02:50:10;;;;;;;26.50;12.52;;;16.60;99.90;;;;;;4989715;28;20113;-86
2022/08/27 02:52:36;;;;;;;24.80;12.90;;;16.60;99.90;;;;;;4992163;28;20542;-86
2022/08/27 02:55:02;;;;;;;26.30;12.18;;;16.60;99.90;;;;;;4990568;28;20078;-86
2022/08/27 02:57:28;;;;;;;31.02;13.02;;;16.60;99.90;;;;;;4989894;28;20054;-86
2022/08/27 02:59:54;;;;;;;30.60;13.65;;;16.60;99.90;;;;;;4988192;28;20057;-86
2022/08/27 03:02:20;;;;;;;29.83;14.35;;;16.60;99.90;;;;;;4974689;28;20042;-86
2022/08/27 03:04:46;;;;;;;32.67;14.52;;;16.60;99.90;;;;;;4992796;28;20105;-87
2022/08/27 03:07:13;;;;;;;25.40;12.77;;;16.40;99.90;;;;;;4992586;28;20046;-86
2022/08/27 03:09:39;;;;;;;31.63;14.20;;;16.50;99.90;;;;;;4997326;28;20027;-86
2022/08/27 03:12:05;;;;;;;34.55;14.25;;;16.50;99.90;;;;;;4996006;28;20680;-86
2022/08/27 03:14:31;;;;;;;30.23;13.30;;;16.50;99.90;;;;;;4997089;28;20019;-87
2022/08/27 03:18:16;;;;;;;28.55;14.15;;;16.50;99.90;;;;;;4996799;28;20506;-86
2022/08/27 03:19:46;;;;;;;29.52;13.77;;;16.50;99.90;;;;;;4995344;28;20022;-86
2022/08/27 03:22:11;;;;;;;29.55;14.55;;;16.40;99.90;;;;;;4992942;28;20035;-86
2022/08/27 03:24:39;;;;;;;29.73;13.88;;;16.30;99.90;;;;;;4996950;28;20034;-86
2022/08/27 03:27:08;;;;;;;27.15;13.82;;;16.40;99.90;;;;;;4995873;28;20053;-86
2022/08/27 03:29:35;;;;;;;28.48;14.48;;;16.40;99.90;;;;;;4993632;28;20044;-87
2022/08/27 03:32:01;;;;;;;28.27;13.27;;;16.40;99.90;;;;;;4990709;28;20030;-86
2022/08/27 03:34:26;;;;;;;28.58;16.42;;;16.40;99.90;;;;;;4989635;28;20021;-86
2022/08/27 03:36:52;;;;;;;28.15;14.57;;;16.40;99.90;;;;;;4997177;28;20088;-86
2022/08/27 03:39:18;;;;;;;27.33;13.07;;;16.40;99.90;;;;;;4995724;28;20023;-86
2022/08/27 03:41:44;;;;;;;27.17;12.80;;;16.40;99.90;;;;;;4995283;28;20022;-86
2022/08/27 03:44:10;;;;;;;24.13;13.02;;;16.40;99.90;;;;;;4996519;28;20034;-86
2022/08/27 03:46:36;;;;;;;24.05;11.93;;;16.30;99.90;;;;;;4989805;28;20035;-86
2022/08/27 03:49:02;;;;;;;29.60;11.73;;;16.30;99.90;;;;;;4994262;28;20023;-86
2022/08/27 03:51:28;;;;;;;23.67;11.50;;;16.30;99.90;;;;;;4996173;28;20057;-86
2022/08/27 03:53:54;;;;;;;24.05;11.20;;;16.20;99.90;;;;;;4991720;28;20038;-86
2022/08/27 03:56:20;;;;;;;23.48;12.07;;;16.20;99.90;;;;;;4995155;28;20549;-86
2022/08/27 03:58:45;;;;;;;24.90;11.45;;;16.20;99.90;;;;;;4995687;28;20027;-86
2022/08/27 04:01:11;;;;;;;32.13;13.15;;;16.10;99.90;;;;;;4993713;28;20026;-86
2022/08/27 04:03:37;;;;;;;21.50;12.15;;;16.10;99.90;;;;;;4995082;28;20386;-86
2022/08/27 04:06:03;;;;;;;26.92;11.70;;;16.10;99.90;;;;;;4994768;28;20038;-86
2022/08/27 04:08:28;;;;;;;20.30;11.45;;;16.10;99.90;;;;;;4992607;28;20177;-87
2022/08/27 04:10:54;;;;;;;21.95;11.48;;;16.10;99.90;;;;;;4993751;28;20121;-86
2022/08/27 04:13:22;;;;;;;25.48;11.20;;;16.20;99.90;;;;;;4996199;28;20118;-87
2022/08/27 04:15:49;;;;;;;25.13;12.80;;;16.20;99.90;;;;;;4995528;28;20031;-86
2022/08/27 04:18:16;;;;;;;24.98;12.50;;;16.20;99.90;;;;;;4991687;28;20030;-87
2022/08/27 04:20:43;;;;;;;23.77;11.13;;;16.20;99.90;;;;;;4991936;28;20066;-86
2022/08/27 04:23:09;;;;;;;23.60;12.00;;;16.10;99.90;;;;;;4988888;28;20023;-86
2022/08/27 04:25:39;;;;;;;22.95;11.73;;;16.20;99.90;;;;;;4994587;28;20028;-86
2022/08/27 04:28:05;;;;;;;23.30;12.07;;;16.20;99.90;;;;;;4994653;28;20021;-86
2022/08/27 04:30:31;;;;;;;24.15;11.73;;;16.20;99.90;;;;;;4989659;28;20027;-86
2022/08/27 04:32:57;;;;;;;22.85;11.90;;;16.30;99.90;;;;;;4993400;28;20109;-86
2022/08/27 04:35:24;;;;;;;23.88;10.60;;;16.20;99.90;;;;;;4994502;28;20053;-86
2022/08/27 04:37:49;;;;;;;20.75;9.85;;;16.20;99.90;;;;;;4989942;28;20023;-86
2022/08/27 04:40:15;;;;;;;24.92;11.15;;;16.10;99.90;;;;;;4994930;28;20503;-86
2022/08/27 04:42:41;;;;;;;20.17;10.00;;;16.20;99.90;;;;;;4985968;28;20097;-86
2022/08/27 04:45:07;;;;;;;18.73;10.90;;;16.20;99.90;;;;;;4995180;28;20438;-86
2022/08/27 04:47:33;;;;;;;20.70;9.40;;;16.20;99.90;;;;;;4996807;28;20390;-87
2022/08/27 04:49:59;;;;;;;20.17;9.38;;;16.10;99.90;;;;;;4992014;28;20038;-87
2022/08/27 04:52:25;;;;;;;18.80;9.80;;;16.10;99.90;;;;;;4991165;28;20108;-86
2022/08/27 04:54:50;;;;;;;18.08;9.13;;;16.10;99.90;;;;;;4990997;28;20026;-86
2022/08/27 04:57:16;;;;;;;20.58;9.73;;;16.00;99.90;;;;;;4991283;28;20026;-86
2022/08/27 04:59:42;;;;;;;22.98;9.80;;;16.00;99.90;;;;;;4983176;28;20026;-86
2022/08/27 05:02:09;;;;;;;16.27;8.95;;;16.00;99.90;;;;;;4994503;28;20034;-86
2022/08/27 05:04:37;;;;;;;21.35;9.63;;;16.00;99.90;;;;;;4993538;28;20454;-86
2022/08/27 05:07:03;;;;;;;22.50;10.35;;;16.10;99.90;;;;;;4993603;28;20057;-86
2022/08/27 05:09:29;;;;;;;21.30;9.88;;;16.10;99.90;;;;;;4988307;28;20018;-86
2022/08/27 05:11:55;;;;;;;21.17;9.85;;;16.20;99.90;;;;;;4993965;28;20101;-86
2022/08/27 05:14:22;;;;;;;19.85;9.23;;;16.10;99.90;;;;;;4992475;28;20050;-87
2022/08/27 05:16:48;;;;;;;24.38;10.00;;;16.10;99.90;;;;;;4993141;28;20070;-86
2022/08/27 05:19:14;;;;;;;20.88;10.00;;;16.00;99.90;;;;;;4992051;28;20059;-87
2022/08/27 05:21:47;;;;;;;20.17;9.88;;;16.00;99.90;;;;;;4992714;28;20045;-86
2022/08/27 05:24:14;;;;;;;25.08;9.68;;;16.00;99.90;;;;;;4991655;28;20030;-86
2022/08/27 05:26:40;;;;;;;20.73;9.23;;;16.10;99.90;;;;;;4992924;28;20084;-86
2022/08/27 05:29:06;;;;;;;16.77;8.60;;;16.10;99.90;;;;;;4984501;28;20030;-86
2022/08/27 05:31:32;;;;;;;20.90;9.48;;;16.10;99.90;;;;;;4980695;28;20588;-86
2022/08/27 05:33:59;;;;;;;19.50;10.23;;;16.10;99.90;;;;;;4991500;28;20053;-86
2022/08/27 05:36:30;;;;;;;14.95;8.20;;;16.20;99.90;;;;;;4993776;28;20026;-86
2022/08/27 05:38:58;;;;;;;16.88;8.10;;;16.10;99.90;;;;;;4976981;28;20026;-86
2022/08/27 05:41:29;;;;;;;17.58;8.32;;;16.10;99.90;;;;;;4989967;28;20088;-86
2022/08/27 05:43:58;;;;;;;16.55;7.60;;;16.10;99.90;;;;;;4991767;28;20026;-86
2022/08/27 05:46:25;;;;;;;15.25;6.93;;;16.20;99.90;;;;;;5006806;28;20027;-86
2022/08/27 05:48:54;;;;;;;16.98;8.05;;;16.10;99.90;;;;;;4991748;28;20057;-86
2022/08/27 05:51:27;;;;;;;15.88;6.88;;;16.20;99.90;;;;;;4992414;28;20082;-86
2022/08/27 05:54:01;;;;;;;19.17;6.80;;;16.20;99.90;;;;;;4987080;28;20146;-86
2022/08/27 05:56:31;;;;;;;16.65;7.65;;;16.20;99.90;;;;;;4990000;28;20100;-86
2022/08/27 06:01:48;;;;;;;14.57;6.40;;;16.20;99.90;;;;;;4989626;28;20138;-85
2022/08/27 06:04:16;;;;;;;19.52;7.38;;;16.10;99.90;;;;;;4985757;28;20055;-85
2022/08/27 06:06:42;;;;;;;14.05;6.70;;;16.20;99.90;;;;;;4990219;28;20124;-85
2022/08/27 06:09:11;;;;;;;17.08;6.68;;;16.20;99.90;;;;;;4986701;28;20050;-85
2022/08/27 06:11:37;;;;;;;14.00;7.25;;;16.20;99.90;;;;;;4988284;28;20018;-85
2022/08/27 06:14:03;;;;;;;20.25;7.13;;;16.30;99.90;;;;;;4983292;28;20110;-85
2022/08/27 06:16:29;;;;;;;14.00;7.50;;;16.40;99.90;;;;;;4986446;28;20026;-86
2022/08/27 06:18:56;;;;;;;16.85;7.13;;;16.40;99.90;;;;;;4989742;28;20355;-85
2022/08/27 06:21:24;;;;;;;16.00;7.35;;;16.50;99.90;;;;;;4990659;28;20041;-85
2022/08/27 06:23:51;;;;;;;14.57;6.85;;;16.60;99.90;;;;;;4982786;28;20475;-86
2022/08/27 06:26:18;;;;;;;15.48;7.65;;;16.60;99.90;;;;;;4992050;28;20498;-86
2022/08/27 06:28:44;;;;;;;17.00;6.88;;;16.60;99.90;;;;;;4999885;28;20528;-86
2022/08/27 06:31:13;;;;;;;18.05;7.05;;;16.60;99.90;;;;;;4988909;28;20046;-85
2022/08/27 06:33:44;;;;;;;16.23;6.37;;;16.70;99.90;;;;;;4990621;28;20116;-85
2022/08/27 06:36:14;;;;;;;17.50;6.50;;;16.50;99.90;;;;;;4987253;28;20026;-86
2022/08/27 06:38:41;;;;;;;18.90;6.57;;;16.50;99.90;;;;;;4984891;28;20086;-86
2022/08/27 06:41:09;;;;;;;14.15;6.22;;;16.50;99.90;;;;;;4991402;28;20027;-85
2022/08/27 06:43:38;;;;;;;14.93;6.20;;;16.50;99.90;;;;;;4987992;28;20065;-85
2022/08/27 06:46:06;;;;;;;20.85;6.65;;;16.60;99.90;;;;;;4994317;28;20403;-85
2022/08/27 06:48:32;;;;;;;14.23;6.07;;;16.60;99.90;;;;;;4991866;28;20033;-85
2022/08/27 06:50:59;;;;;;;12.73;5.55;;;16.60;99.90;;;;;;4993009;28;20129;-86
2022/08/27 06:53:25;;;;;;;17.88;5.68;;;16.70;99.90;;;;;;4993033;28;20026;-85
2022/08/27 06:55:51;;;;;;;12.57;5.43;;;16.80;99.90;;;;;;4993660;28;20038;-85
2022/08/27 06:58:18;;;;;;;15.70;5.25;;;16.90;99.90;;;;;;4995256;28;20029;-84
2022/08/27 07:00:44;;;;;;;15.23;5.88;;;17.00;99.90;;;;;;4986638;28;20549;-85
2022/08/27 07:03:10;;;;;;;12.18;5.93;;;17.10;99.90;;;;;;4994255;28;20027;-85
2022/08/27 07:05:38;;;;;;;11.80;5.78;;;17.10;99.90;;;;;;4992575;28;20554;-84
2022/08/27 07:08:06;;;;;;;17.58;5.53;;;17.10;99.90;;;;;;4989199;28;20061;-84
2022/08/27 07:10:33;;;;;;;12.57;5.82;;;17.20;99.90;;;;;;4989302;28;20399;-84
2022/08/27 07:12:59;;;;;;;14.95;6.13;;;17.30;99.90;;;;;;4993391;28;20073;-86
2022/08/27 07:15:25;;;;;;;13.20;5.32;;;17.30;99.90;;;;;;4989852;28;20106;-86
2022/08/27 07:17:51;;;;;;;16.27;5.72;;;17.20;99.90;;;;;;4990791;28;20125;-85
2022/08/27 07:20:18;;;;;;;13.88;5.18;;;17.30;99.90;;;;;;4990259;28;20123;-87
2022/08/27 07:22:45;;;;;;;13.75;5.20;;;17.40;99.90;;;;;;5001915;28;20123;-87
2022/08/27 07:25:14;;;;;;;18.48;5.47;;;17.50;99.90;;;;;;4991268;28;20062;-87
2022/08/27 07:27:43;;;;;;;16.80;5.57;;;17.60;99.90;;;;;;4993605;28;20048;-86
2022/08/27 07:30:11;;;;;;;13.63;5.55;;;17.70;99.90;;;;;;4987195;28;20026;-87
2022/08/27 07:32:37;;;;;;;13.90;5.55;;;17.70;99.90;;;;;;5003461;28;20121;-87
2022/08/27 07:35:08;;;;;;;10.07;4.60;;;17.80;99.90;;;;;;5002485;28;20093;-87
2022/08/27 07:37:37;;;;;;;11.75;5.45;;;17.80;99.90;;;;;;4991074;28;20101;-85
2022/08/27 07:40:12;;;;;;;13.13;4.88;;;17.90;99.90;;;;;;4990889;28;20044;-85
2022/08/27 07:45:24;;;;;;;12.05;4.70;;;17.90;99.90;;;;;;4979001;28;20042;-86
2022/08/27 07:47:50;;;;;;;12.23;4.30;;;17.90;99.90;;;;;;4982498;28;20031;-86
2022/08/27 07:50:16;;;;;;;13.77;4.13;;;18.10;99.90;;;;;;4991097;28;20018;-86
2022/08/27 07:52:42;;;;;;;15.13;4.32;;;18.20;99.90;;;;;;4985032;28;20100;-86
2022/08/27 07:55:10;;;;;;;12.25;4.38;;;18.30;99.90;;;;;;4985546;28;20022;-87
2022/08/27 07:57:36;;;;;;;12.35;3.80;;;18.30;99.90;;;;;;4982584;28;20038;-87
2022/08/27 08:00:02;;;;;;;9.57;3.53;;;18.40;99.90;;;;;;4987857;28;20023;-87
2022/08/27 08:02:29;;;;;;;11.57;4.57;;;18.50;99.90;;;;;;4992520;28;20136;-86
2022/08/27 08:04:55;;;;;;;16.73;4.55;;;18.60;99.90;;;;;;4988448;28;20498;-87
2022/08/27 08:07:30;;;;;;;9.27;3.88;;;18.40;99.90;;;;;;4992236;28;20109;-86
2022/08/27 08:09:57;;;;;;;16.20;4.97;;;18.40;99.90;;;;;;4991979;28;20019;-86
2022/08/27 08:12:23;;;;;;;12.32;4.88;;;18.30;99.90;;;;;;4989469;28;20345;-87
2022/08/27 08:14:48;;;;;;;15.32;5.00;;;18.20;99.90;;;;;;4990914;28;20057;-86
2022/08/27 08:17:17;;;;;;;10.27;5.07;;;18.00;99.90;;;;;;4987076;28;20066;-86
2022/08/27 08:19:43;;;;;;;13.60;4.90;;;18.00;99.90;;;;;;4986565;28;20030;-86
2022/08/27 08:22:11;;;;;;;13.18;4.82;;;17.90;99.90;;;;;;4986763;28;20086;-86
2022/08/27 08:24:37;;;;;;;14.40;5.30;;;17.90;99.90;;;;;;4988191;28;20656;-86
2022/08/27 08:27:03;;;;;;;11.73;5.15;;;18.00;99.90;;;;;;4985793;28;20018;-86
2022/08/27 08:29:28;;;;;;;12.23;4.65;;;17.90;99.90;;;;;;4991068;28;20450;-86
2022/08/27 08:31:54;;;;;;;10.80;4.32;;;17.90;99.90;;;;;;4987678;28;20026;-86
2022/08/27 08:34:20;;;;;;;20.17;4.72;;;18.00;99.90;;;;;;4992909;28;20030;-87
2022/08/27 08:36:46;;;;;;;10.32;4.82;;;18.00;99.90;;;;;;4983986;28;20081;-86
2022/08/27 08:39:12;;;;;;;10.40;4.18;;;18.10;99.90;;;;;;4991878;28;20379;-86
2022/08/27 08:41:47;;;;;;;12.77;4.70;;;18.00;99.90;;;;;;4992088;28;20023;-86
2022/08/27 08:44:20;;;;;;;11.23;4.30;;;18.20;99.90;;;;;;4991932;28;20079;-86
2022/08/27 08:46:53;;;;;;;15.20;4.57;;;18.40;99.90;;;;;;4990084;28;20037;-86
2022/08/27 08:49:44;;;;;;;10.75;4.00;;;18.50;99.90;;;;;;5007137;28;20029;-86
2022/08/27 08:52:33;;;;;;;11.02;4.40;;;18.60;99.90;;;;;;4988661;28;20019;-86
2022/08/27 08:55:12;;;;;;;11.35;4.03;;;18.70;99.90;;;;;;5006166;28;20046;-86
2022/08/27 08:58:01;;;;;;;10.95;3.60;;;18.90;99.90;;;;;;4982199;28;20037;-86
2022/08/27 09:00:27;;;;;;;10.77;3.45;;;19.20;99.90;;;;;;4978047;28;20052;-86
2022/08/27 09:02:54;;;;;;;14.05;3.30;;;19.30;99.90;;;;;;4980575;28;20026;-86
2022/08/27 09:05:21;;;;;;;7.68;2.58;;;19.30;99.90;;;;;;4989415;28;20025;-86
2022/08/27 09:07:59;;;;;;;7.38;2.50;;;19.30;99.90;;;;;;4991090;28;20097;-86
2022/08/27 09:10:42;;;;;;;9.02;2.65;;;19.40;99.90;;;;;;4987816;28;20026;-86
2022/08/27 09:13:37;;;;;;;13.25;3.13;;;19.60;99.90;;;;;;4989808;28;20054;-86
2022/08/27 09:16:03;;;;;;;11.50;3.28;;;19.90;99.90;;;;;;4988928;28;20455;-84
2022/08/27 09:18:30;;;;;;;9.20;3.40;;;20.00;99.90;;;;;;4988482;28;20061;-86
2022/08/27 09:21:14;;;;;;;9.57;3.38;;;20.00;99.90;;;;;;4983121;28;20027;-86
2022/08/27 09:24:01;;;;;;;10.30;3.22;;;20.00;99.90;;;;;;4985436;28;20560;-86
2022/08/27 09:26:29;;;;;;;10.45;3.50;;;19.70;99.90;;;;;;5003285;28;20027;-86
2022/08/27 09:29:15;;;;;;;10.18;3.20;;;19.90;99.90;;;;;;4991612;28;20025;-86
2022/08/27 09:31:55;;;;;;;8.90;2.75;;;19.90;99.90;;;;;;4989629;28;20038;-86
2022/08/27 09:34:21;;;;;;;8.88;2.38;;;19.70;99.90;;;;;;4990015;28;20054;-86
2022/08/27 09:36:51;;;;;;;9.30;2.45;;;19.60;99.90;;;;;;4986257;28;20038;-85
2022/08/27 09:39:16;;;;;;;11.20;2.75;;;19.70;99.90;;;;;;5012385;28;20056;-83
2022/08/27 09:41:45;;;;;;;9.48;3.50;;;19.60;99.90;;;;;;4992179;28;20038;-86
2022/08/27 09:44:16;;;;;;;8.70;2.45;;;19.40;99.90;;;;;;4990661;28;20030;-86
2022/08/27 09:47:01;;;;;;;7.60;2.40;;;19.40;99.90;;;;;;4990673;28;20039;-86
2022/08/27 09:49:29;;;;;;;10.15;2.70;;;19.30;99.90;;;;;;4987064;28;20022;-86
2022/08/27 09:51:55;;;;;;;7.10;2.42;;;19.40;99.90;;;;;;4988570;28;20054;-85
2022/08/27 09:54:45;;;;;;;9.57;2.35;;;19.30;99.90;;;;;;4987971;28;20052;-86
2022/08/27 09:57:12;;;;;;;;;;;19.30;99.90;;;;;;4986404;28;20022;-85
2022/08/27 09:59:52;;;;;;;9.13;2.75;;;19.20;99.90;;;;;;4988812;28;19920;-86
2022/08/27 10:02:20;;;;;;;;;;;19.40;99.90;;;;;;5003416;28;20027;-86
2022/08/27 10:04:51;;;;;;;7.53;2.08;;;19.20;99.90;;;;;;4984588;28;19909;-86
2022/08/27 10:07:42;;;;;;;6.97;2.10;;;19.40;99.90;;;;;;4981793;28;20043;-86
2022/08/27 10:10:10;;;;;;;7.35;2.60;;;19.50;99.90;;;;;;4986367;28;20573;-86
2022/08/27 10:12:57;;;;;;;9.93;2.30;;;19.70;99.90;;;;;;4996485;28;20027;-87
2022/08/27 10:15:28;;;;;;;6.85;2.20;;;19.90;99.90;;;;;;5002715;28;20085;-86
2022/08/27 10:18:23;;;;;;;11.80;2.47;;;19.90;99.90;;;;;;4988873;28;20399;-86
2022/08/27 10:21:21;;;;;;;8.68;2.60;;;20.10;99.90;;;;;;4990170;28;20080;-87
2022/08/27 10:24:24;;;;;;;7.35;2.50;;;20.10;99.90;;;;;;4990750;28;20076;-86
2022/08/27 10:26:50;;;;;;;9.88;2.90;;;20.10;99.90;;;;;;5004622;28;20035;-86
2022/08/27 10:29:37;;;;;;;12.73;3.08;;;20.10;99.90;;;;;;5013174;28;20014;-87
2022/08/27 10:32:18;;;;;;;10.82;3.50;;;20.20;99.90;;;;;;4988959;28;20054;-87
2022/08/27 10:34:49;;;;;;;11.93;3.53;;;20.40;99.90;;;;;;5000286;28;20595;-86
2022/08/27 10:37:15;;;;;;;10.27;3.42;;;20.00;99.90;;;;;;5004837;28;20034;-87
2022/08/27 10:39:49;;;;;;;10.10;2.92;;;20.40;99.90;;;;;;5008352;28;20034;-87
2022/08/27 10:42:44;;;;;;;9.20;3.00;;;21.00;99.90;;;;;;4990223;28;20507;-86
2022/08/27 10:45:40;;;;;;;7.93;2.40;;;21.30;99.90;;;;;;4992948;28;20084;-87
2022/08/27 10:48:11;;;;;;;7.10;2.65;;;21.80;99.90;;;;;;4987372;28;20035;-87
2022/08/27 10:51:10;;;;;;;10.68;2.92;;;21.90;99.90;;;;;;4989259;28;20022;-87
2022/08/27 10:53:43;;;;;;;9.90;2.92;;;21.90;99.90;;;;;;4955041;28;20133;-86
2022/08/27 10:56:33;;;;;;;9.23;2.97;;;21.60;99.90;;;;;;4991220;28;20090;-87
2022/08/27 10:59:23;;;;;;;8.70;2.88;;;21.80;99.90;;;;;;5003912;28;20038;-86
2022/08/27 11:02:15;;;;;;;8.07;2.92;;;21.90;99.90;;;;;;4977197;28;20040;-86
2022/08/27 11:04:56;;;;;;;10.15;3.00;;;21.90;99.90;;;;;;4982374;28;20047;-87
2022/08/27 11:07:24;;;;;;;8.23;3.45;;;22.40;99.90;;;;;;4987489;28;20149;-87
2022/08/27 11:10:03;;;;;;;12.93;3.33;;;22.60;99.90;;;;;;4989862;28;20023;-86
2022/08/27 11:12:43;;;;;;;11.25;3.42;;;22.30;99.90;;;;;;4991395;28;20023;-86
2022/08/27 11:15:18;;;;;;;;;;;22.20;99.90;;;;;;4989662;28;20093;-86
2022/08/27 11:17:50;;;;;;;7.55;2.80;;;22.20;99.90;;;;;;5000201;28;19920;-87
2022/08/27 11:20:15;;;;;;;8.57;3.50;;;23.10;99.90;;;;;;4988722;28;20343;-86
2022/08/27 11:22:53;;;;;;;8.77;3.25;;;23.20;99.90;;;;;;4999495;28;20033;-86
2022/08/27 11:25:43;;;;;;;10.15;2.88;;;23.00;99.90;;;;;;4988921;28;20027;-86
2022/08/27 11:28:10;;;;;;;12.35;3.00;;;22.90;99.90;;;;;;4989201;28;20046;-86
2022/08/27 11:30:50;;;;;;;7.90;2.40;;;23.40;99.90;;;;;;4992850;28;20137;-86
2022/08/27 11:33:52;;;;;;;7.75;2.28;;;23.50;99.90;;;;;;5007431;28;20027;-86
2022/08/27 11:36:36;;;;;;;10.13;3.03;;;23.90;99.90;;;;;;4989674;28;20070;-85
2022/08/27 11:39:08;;;;;;;8.30;2.28;;;23.60;99.90;;;;;;4992967;28;20018;-84
2022/08/27 11:42:01;;;;;;;6.93;2.05;;;23.80;99.90;;;;;;4996246;28;20113;-84
2022/08/27 11:44:28;;;;;;;6.60;1.70;;;24.20;99.90;;;;;;4993213;28;20058;-86
2022/08/27 11:47:13;;;;;;;6.47;1.95;;;24.40;99.90;;;;;;4989438;28;20030;-86
2022/08/27 11:49:49;;;;;;;6.38;1.70;;;24.40;99.90;;;;;;4990098;28;20514;-86
2022/08/27 11:52:29;;;;;;;7.55;1.98;;;24.20;99.90;;;;;;4990246;28;20023;-86
2022/08/27 11:55:07;;;;;;;;;;;23.80;99.90;;;;;;4985567;28;20026;-86
2022/08/27 11:57:35;;;;;;;7.35;1.90;;;24.20;99.90;;;;;;4993020;28;19918;-86
2022/08/27 12:00:26;;;;;;;10.98;2.00;;;24.10;99.90;;;;;;4987268;28;20154;-86
2022/08/27 12:03:02;;;;;;;8.73;1.98;;;24.40;99.90;;;;;;4985844;28;20475;-86
2022/08/27 12:05:53;;;;;;;11.90;2.50;;;24.50;99.90;;;;;;5005493;28;20137;-86
2022/08/27 12:08:28;;;;;;;9.05;2.22;;;24.60;99.90;;;;;;4990448;28;20799;-86
2022/08/27 12:11:15;;;;;;;7.22;2.40;;;23.90;99.90;;;;;;5008101;28;20048;-86
2022/08/27 12:14:03;;;;;;;8.63;2.30;;;23.50;99.90;;;;;;4987131;28;20044;-86
2022/08/27 12:16:37;;;;;;;7.55;2.15;;;22.90;99.90;;;;;;4986026;28;20463;-86
2022/08/27 12:19:24;;;;;;;9.07;2.22;;;23.00;99.90;;;;;;4989832;28;20050;-86
2022/08/27 12:22:08;;;;;;;8.57;2.15;;;23.10;99.90;;;;;;4990734;28;20041;-86
2022/08/27 12:24:48;;;;;;;8.48;1.98;;;23.20;99.90;;;;;;4989153;28;20050;-86
2022/08/27 12:27:30;;;;;;;;;;;22.90;99.90;;;;;;4991374;28;20026;-86
2022/08/27 12:30:21;;;;;;;6.28;2.08;;;22.70;99.90;;;;;;5002234;28;19936;-86
2022/08/27 12:32:50;;;;;;;6.88;2.15;;;22.60;99.90;;;;;;4985033;28;20081;-86
2022/08/27 12:35:41;;;;;;;7.40;1.90;;;22.70;99.90;;;;;;4990723;28;20023;-86
2022/08/27 12:38:31;;;;;;;9.05;2.03;;;23.40;99.90;;;;;;4981072;28;20270;-86
2022/08/27 12:41:02;;;;;;;10.70;2.28;;;23.20;99.90;;;;;;4992410;28;20034;-86
2022/08/27 12:43:32;;;;;;;7.93;2.03;;;22.90;99.90;;;;;;4988802;28;20118;-86
2022/08/27 12:46:07;;;;;;;10.43;1.83;;;22.80;99.90;;;;;;4990194;28;20038;-85
2022/08/27 12:48:39;;;;;;;10.73;2.20;;;22.90;99.90;;;;;;4993991;28;20035;-86
2022/08/27 12:51:22;;;;;;;6.55;2.15;;;22.70;99.90;;;;;;4986780;28;20022;-84
2022/08/27 12:53:59;;;;;;;14.57;2.47;;;22.70;99.90;;;;;;4987667;28;20034;-84
2022/08/27 12:56:46;;;;;;;7.07;1.70;;;22.90;99.90;;;;;;5006776;28;20038;-84
2022/08/27 12:59:49;;;;;;;8.52;2.30;;;23.50;99.90;;;;;;4992095;28;20097;-84
2022/08/27 13:02:53;;;;;;;8.82;2.00;;;23.80;99.90;;;;;;5002385;28;20046;-84
2022/08/27 13:05:21;;;;;;;7.82;2.10;;;24.40;99.90;;;;;;4982551;28;20043;-84